Time;durP1;ratioP1;P1;durP2;ratioP2;P2;SDS_P1;SDS_P2;PMS_P1;PMS_P2;Temp;Humidity;BMP_temperature;BMP_pressure;BME280_temperature;BME280_humidity;BME280_pressure;Samples;Min_cycle;Max_cycle;Signal;HPM_P1;HPM_P2
2023/03/29 00:00:23;;;;;;;6.43;2.90;;;7.70;99.90;;;;;;5032312;28;20378;-73
2023/03/29 00:02:48;;;;;;;8.17;3.07;;;7.60;99.90;;;;;;5035165;28;20041;-74
2023/03/29 00:05:16;;;;;;;5.00;2.20;;;7.60;99.90;;;;;;5032624;28;20105;-74
2023/03/29 00:07:42;;;;;;;5.40;2.63;;;7.70;99.90;;;;;;5034402;28;20107;-74
2023/03/29 00:10:09;;;;;;;4.07;2.30;;;7.70;99.90;;;;;;5034373;28;20545;-75
2023/03/29 00:12:37;;;;;;;5.37;2.60;;;7.70;99.90;;;;;;5034536;28;20016;-74
2023/03/29 00:15:03;;;;;;;3.33;2.43;;;7.60;99.90;;;;;;5034552;28;20049;-74
2023/03/29 00:17:29;;;;;;;8.23;3.13;;;7.70;99.90;;;;;;5038686;28;20044;-74
2023/03/29 00:19:55;;;;;;;4.93;2.70;;;7.70;99.90;;;;;;5034511;28;20064;-74
2023/03/29 00:22:20;;;;;;;6.70;2.57;;;7.70;99.90;;;;;;5038007;28;20029;-74
2023/03/29 00:24:47;;;;;;;5.77;2.80;;;7.70;99.90;;;;;;5034213;28;20021;-74
2023/03/29 00:27:15;;;;;;;3.47;2.13;;;7.70;99.90;;;;;;5035017;28;20124;-73
2023/03/29 00:29:40;;;;;;;5.93;2.90;;;7.80;99.90;;;;;;5032917;28;20094;-74
2023/03/29 00:32:06;;;;;;;5.43;2.17;;;7.70;99.90;;;;;;5042697;28;20478;-74
2023/03/29 00:34:34;;;;;;;4.80;2.80;;;7.80;99.90;;;;;;5030206;28;20022;-74
2023/03/29 00:37:01;;;;;;;6.97;2.87;;;7.80;99.90;;;;;;5030050;28;20036;-74
2023/03/29 00:39:27;;;;;;;7.03;3.07;;;7.80;99.90;;;;;;5030475;28;20030;-74
2023/03/29 00:41:53;;;;;;;3.80;2.40;;;7.80;99.90;;;;;;5029785;28;20590;-74
2023/03/29 00:44:54;;;;;;;4.90;1.83;;;7.80;99.90;;;;;;5029832;28;20033;-74
2023/03/29 00:47:44;;;;;;;5.83;3.23;;;7.80;99.90;;;;;;5028993;28;20032;-74
2023/03/29 00:50:25;;;;;;;4.43;2.63;;;7.80;99.90;;;;;;5029593;28;20048;-74
2023/03/29 00:52:58;;;;;;;5.43;2.57;;;7.80;99.90;;;;;;5033539;28;20369;-74
2023/03/29 00:55:28;;;;;;;4.13;2.78;;;7.80;99.90;;;;;;5042555;28;20025;-74
2023/03/29 00:57:56;;;;;;;5.20;3.00;;;7.80;99.90;;;;;;5042557;28;20087;-74
2023/03/29 01:00:30;;;;;;;6.80;3.03;;;7.80;99.90;;;;;;5030100;28;20033;-74
2023/03/29 01:02:58;;;;;;;6.93;2.70;;;7.80;99.90;;;;;;5029294;28;20065;-74
2023/03/29 01:05:42;;;;;;;5.60;3.07;;;7.80;99.90;;;;;;5043521;28;20104;-74
2023/03/29 01:08:24;;;;;;;6.90;2.55;;;7.90;99.90;;;;;;5049138;28;20095;-74
2023/03/29 01:11:07;;;;;;;4.80;2.40;;;7.80;99.90;;;;;;5049377;28;20032;-74
2023/03/29 01:13:51;;;;;;;4.10;2.40;;;7.80;99.90;;;;;;5048286;28;20044;-74
2023/03/29 01:16:18;;;;;;;5.68;2.63;;;7.90;99.90;;;;;;5049125;28;20021;-74
2023/03/29 01:18:47;;;;;;;7.33;2.83;;;7.90;99.90;;;;;;5049145;28;20452;-74
2023/03/29 01:21:22;;;;;;;3.47;2.33;;;7.90;99.90;;;;;;5053125;28;20106;-74
2023/03/29 01:24:11;;;;;;;4.27;2.83;;;7.90;99.90;;;;;;5044589;28;20081;-74
2023/03/29 01:26:52;;;;;;;5.07;3.07;;;7.90;99.90;;;;;;5028073;28;20040;-74
2023/03/29 01:29:30;;;;;;;4.43;2.70;;;7.90;99.90;;;;;;5031494;28;20060;-74
2023/03/29 01:32:21;;;;;;;4.33;2.83;;;7.90;99.90;;;;;;5047228;28;20017;-74
2023/03/29 01:34:58;;;;;;;3.87;2.70;;;7.90;99.90;;;;;;5033295;28;20040;-74
2023/03/29 01:37:30;;;;;;;4.97;2.50;;;7.90;99.90;;;;;;5029610;28;20021;-74
2023/03/29 01:39:55;;;;;;;5.10;2.73;;;7.90;99.90;;;;;;5046821;28;20029;-74
2023/03/29 01:42:24;;;;;;;8.43;2.90;;;7.90;99.90;;;;;;5051621;28;20029;-74
2023/03/29 01:45:08;;;;;;;7.17;3.07;;;7.90;99.90;;;;;;5052006;28;20485;-74
2023/03/29 01:48:08;;;;;;;7.27;3.20;;;7.90;99.90;;;;;;5051753;28;20025;-73
2023/03/29 01:50:50;;;;;;;5.47;2.40;;;8.00;99.90;;;;;;5052259;28;20032;-73
2023/03/29 01:53:27;;;;;;;7.93;3.53;;;7.90;99.90;;;;;;5027195;28;20029;-73
2023/03/29 01:56:10;;;;;;;6.47;2.63;;;7.90;99.90;;;;;;5046856;28;20032;-72
2023/03/29 01:58:40;;;;;;;3.83;2.80;;;7.90;99.90;;;;;;5050620;28;20021;-73
2023/03/29 02:01:09;;;;;;;5.53;2.33;;;8.00;99.90;;;;;;5050755;28;20394;-72
2023/03/29 02:03:41;;;;;;;6.10;3.00;;;8.00;99.90;;;;;;5051606;28;20033;-73
2023/03/29 02:06:13;;;;;;;5.47;2.93;;;8.00;99.90;;;;;;5049739;28;20436;-72
2023/03/29 02:08:40;;;;;;;4.37;2.20;;;8.00;99.90;;;;;;5050323;28;20029;-73
2023/03/29 02:11:06;;;;;;;4.63;2.90;;;8.00;99.90;;;;;;5049783;28;20166;-72
2023/03/29 02:13:33;;;;;;;7.03;3.10;;;8.00;99.90;;;;;;5050384;28;20025;-73
2023/03/29 02:16:01;;;;;;;4.63;2.67;;;8.00;99.90;;;;;;5051331;28;20212;-73
2023/03/29 02:18:28;;;;;;;8.10;3.10;;;8.00;99.90;;;;;;5049955;28;20025;-72
2023/03/29 02:20:56;;;;;;;5.60;2.40;;;8.10;99.90;;;;;;5051199;28;20885;-73
2023/03/29 02:23:34;;;;;;;4.80;2.90;;;8.10;99.90;;;;;;5048958;28;20029;-73
2023/03/29 02:26:01;;;;;;;4.37;2.90;;;8.10;99.90;;;;;;5051206;28;20040;-72
2023/03/29 02:28:29;;;;;;;4.73;3.00;;;8.10;99.90;;;;;;5051182;28;20021;-73
2023/03/29 02:31:20;;;;;;;5.03;2.73;;;8.10;99.90;;;;;;5050082;28;20029;-73
2023/03/29 02:33:50;;;;;;;5.93;3.30;;;8.10;99.90;;;;;;5026742;28;20101;-73
2023/03/29 02:36:23;;;;;;;6.60;3.20;;;8.10;99.90;;;;;;5050076;28;20013;-72
2023/03/29 02:38:50;;;;;;;4.80;3.47;;;8.10;99.90;;;;;;5032714;28;20032;-73
2023/03/29 02:41:16;;;;;;;4.73;2.63;;;8.10;99.90;;;;;;5038513;28;20116;-73
2023/03/29 02:43:45;;;;;;;5.50;3.03;;;8.10;99.90;;;;;;5051720;28;20025;-73
2023/03/29 02:46:12;;;;;;;4.67;3.13;;;8.10;99.90;;;;;;5051069;28;20478;-72
2023/03/29 02:48:38;;;;;;;7.03;3.33;;;8.00;99.90;;;;;;5042050;28;20029;-73
2023/03/29 02:51:16;;;;;;;7.17;3.70;;;8.00;99.90;;;;;;5032009;28;20033;-72
2023/03/29 02:53:48;;;;;;;7.03;3.10;;;8.00;99.90;;;;;;5030428;28;20483;-72
2023/03/29 02:56:14;;;;;;;6.17;2.87;;;8.00;99.90;;;;;;5032219;28;20104;-72
2023/03/29 02:58:39;;;;;;;5.43;3.40;;;7.90;99.90;;;;;;5031744;28;20105;-72
2023/03/29 03:01:06;;;;;;;6.53;3.80;;;7.90;99.90;;;;;;5031962;28;20030;-72
2023/03/29 03:03:32;;;;;;;6.93;3.30;;;8.00;99.90;;;;;;5031879;28;20033;-72
2023/03/29 03:06:00;;;;;;;6.17;3.87;;;8.00;99.90;;;;;;5031238;28;20040;-72
2023/03/29 03:08:25;;;;;;;6.43;3.90;;;8.00;99.90;;;;;;5031431;28;20025;-73
2023/03/29 03:10:51;;;;;;;8.10;4.20;;;8.00;99.90;;;;;;5031344;28;20090;-72
2023/03/29 03:13:17;;;;;;;6.77;3.40;;;8.00;99.90;;;;;;5031971;28;20025;-72
2023/03/29 03:15:47;;;;;;;4.30;3.40;;;7.90;99.90;;;;;;5031418;28;20029;-72
2023/03/29 03:18:13;;;;;;;7.03;3.90;;;8.00;99.90;;;;;;5031597;28;20476;-73
2023/03/29 03:20:39;;;;;;;7.90;3.73;;;8.00;99.90;;;;;;5050765;28;20097;-72
2023/03/29 03:23:07;;;;;;;5.37;3.90;;;8.00;99.90;;;;;;5049809;28;20374;-72
2023/03/29 03:25:34;;;;;;;6.63;3.77;;;8.00;99.90;;;;;;5037753;28;20054;-72
2023/03/29 03:28:00;;;;;;;6.23;3.80;;;8.00;99.90;;;;;;5048537;28;20111;-72
2023/03/29 03:30:26;;;;;;;8.00;4.67;;;8.00;99.90;;;;;;5051218;28;20159;-73
2023/03/29 03:32:53;;;;;;;4.73;3.60;;;8.00;99.90;;;;;;5037301;28;20036;-72
2023/03/29 03:35:19;;;;;;;6.60;4.07;;;8.00;99.90;;;;;;5017747;28;20033;-72
2023/03/29 03:37:45;;;;;;;9.00;4.83;;;8.00;99.90;;;;;;5030991;28;20036;-73
2023/03/29 03:40:12;;;;;;;6.00;4.00;;;8.00;99.90;;;;;;5031049;28;20026;-72
2023/03/29 03:42:41;;;;;;;7.07;3.93;;;8.00;99.90;;;;;;5031904;28;20083;-73
2023/03/29 03:45:07;;;;;;;6.97;4.23;;;8.00;99.90;;;;;;5030731;28;20022;-73
2023/03/29 03:47:34;;;;;;;5.87;4.17;;;8.10;99.90;;;;;;5030643;28;20030;-72
2023/03/29 03:49:59;;;;;;;8.07;4.43;;;8.10;99.90;;;;;;5029162;28;20414;-72
2023/03/29 03:52:25;;;;;;;7.67;3.80;;;8.10;99.90;;;;;;5029677;28;20026;-72
2023/03/29 03:54:51;;;;;;;7.33;4.07;;;8.10;99.90;;;;;;5028908;28;20068;-72
2023/03/29 03:57:17;;;;;;;6.87;3.90;;;8.10;99.90;;;;;;5030064;28;20028;-73
2023/03/29 03:59:43;;;;;;;6.83;3.93;;;8.10;99.90;;;;;;5028898;28;20032;-72
2023/03/29 04:02:09;;;;;;;9.17;4.40;;;8.10;99.90;;;;;;5030799;28;20497;-73
2023/03/29 04:04:34;;;;;;;9.27;4.93;;;8.20;99.90;;;;;;5031234;28;20029;-73
2023/03/29 04:07:03;;;;;;;6.63;4.30;;;8.20;99.90;;;;;;5030443;28;20071;-72
2023/03/29 04:09:30;;;;;;;6.07;4.00;;;8.20;99.90;;;;;;5029549;28;20030;-73
2023/03/29 04:11:56;;;;;;;6.80;3.93;;;8.20;99.90;;;;;;5030088;28;20017;-72
2023/03/29 04:14:22;;;;;;;5.80;3.40;;;8.20;99.90;;;;;;5030987;28;20075;-73
2023/03/29 04:16:47;;;;;;;5.33;3.83;;;8.20;99.90;;;;;;5030647;28;20136;-73
2023/03/29 04:19:13;;;;;;;7.23;4.20;;;8.20;99.90;;;;;;5030672;28;20029;-72
2023/03/29 04:21:39;;;;;;;6.77;4.03;;;8.20;99.90;;;;;;5030072;28;20026;-72
2023/03/29 04:24:05;;;;;;;12.03;4.53;;;8.20;99.90;;;;;;5030288;28;20025;-72
2023/03/29 04:26:31;;;;;;;4.03;3.47;;;8.20;99.90;;;;;;5030144;28;20021;-72
2023/03/29 04:28:56;;;;;;;5.20;3.23;;;8.30;99.90;;;;;;5029959;28;20025;-72
2023/03/29 04:31:22;;;;;;;5.30;3.60;;;8.20;99.90;;;;;;5043443;28;20021;-73
2023/03/29 04:33:47;;;;;;;7.07;4.10;;;8.30;99.90;;;;;;5028790;28;20100;-73
2023/03/29 04:36:14;;;;;;;7.10;3.53;;;8.30;99.90;;;;;;5029903;28;20021;-72
2023/03/29 04:38:40;;;;;;;8.30;3.40;;;8.30;99.90;;;;;;5037571;28;20013;-73
2023/03/29 04:41:08;;;;;;;6.10;3.07;;;8.30;99.90;;;;;;5035611;28;20026;-72
2023/03/29 04:43:34;;;;;;;6.40;3.37;;;8.30;99.90;;;;;;5030086;28;20017;-72
2023/03/29 04:45:59;;;;;;;7.23;3.97;;;8.30;99.90;;;;;;5029872;28;20471;-72
2023/03/29 04:48:25;;;;;;;5.23;3.33;;;8.30;99.90;;;;;;5030160;28;20056;-73
2023/03/29 04:50:53;;;;;;;7.53;3.90;;;8.30;99.90;;;;;;5027760;28;20030;-72
2023/03/29 04:53:19;;;;;;;6.53;3.60;;;8.30;99.90;;;;;;5030070;28;20486;-72
2023/03/29 04:55:46;;;;;;;5.57;3.60;;;8.40;99.90;;;;;;5029751;28;20532;-72
2023/03/29 04:58:11;;;;;;;5.27;3.70;;;8.30;99.90;;;;;;5030004;28;20112;-73
2023/03/29 05:00:37;;;;;;;6.23;4.10;;;8.30;99.90;;;;;;5030017;28;20109;-72
2023/03/29 05:03:03;;;;;;;4.47;3.00;;;8.30;99.90;;;;;;5029423;28;20053;-72
2023/03/29 05:05:29;;;;;;;5.37;2.70;;;8.30;99.90;;;;;;5044059;28;20385;-72
2023/03/29 05:07:55;;;;;;;5.43;3.37;;;8.30;99.90;;;;;;5049155;28;20021;-72
2023/03/29 05:10:22;;;;;;;6.67;4.53;;;8.30;99.90;;;;;;5049168;28;20033;-71
2023/03/29 05:12:52;;;;;;;6.27;3.43;;;8.30;99.90;;;;;;5049513;28;20039;-74
2023/03/29 05:15:19;;;;;;;7.80;3.40;;;8.30;99.90;;;;;;5048974;28;20021;-71
2023/03/29 05:17:45;;;;;;;8.63;3.03;;;8.40;99.90;;;;;;5052601;28;20027;-72
2023/03/29 05:20:12;;;;;;;6.43;3.63;;;8.40;99.90;;;;;;5052250;28;20100;-72
2023/03/29 05:22:38;;;;;;;5.70;3.00;;;8.40;99.90;;;;;;5044052;28;20113;-72
2023/03/29 05:25:05;;;;;;;5.63;4.00;;;8.40;99.90;;;;;;5035725;28;20037;-73
2023/03/29 05:27:30;;;;;;;5.90;3.30;;;8.40;99.90;;;;;;5035955;28;20509;-73
2023/03/29 05:29:56;;;;;;;4.27;3.53;;;8.50;99.90;;;;;;5035255;28;20033;-73
2023/03/29 05:32:21;;;;;;;6.13;2.90;;;8.50;99.90;;;;;;5043913;28;20064;-73
2023/03/29 05:34:47;;;;;;;6.47;3.97;;;8.50;99.90;;;;;;5048333;28;20032;-73
2023/03/29 05:37:12;;;;;;;7.07;3.80;;;8.50;99.90;;;;;;5028188;28;20076;-73
2023/03/29 05:39:38;;;;;;;4.87;3.30;;;8.50;99.90;;;;;;5034254;28;20021;-73
2023/03/29 05:42:04;;;;;;;10.40;3.93;;;8.60;99.90;;;;;;5039648;28;20028;-73
2023/03/29 05:44:30;;;;;;;7.63;3.50;;;8.60;99.90;;;;;;5042439;28;20108;-73
2023/03/29 05:46:56;;;;;;;4.73;3.70;;;8.60;99.90;;;;;;5044025;28;20071;-73
2023/03/29 05:49:22;;;;;;;7.63;4.33;;;8.60;99.90;;;;;;5034029;28;20030;-73
2023/03/29 05:51:48;;;;;;;6.57;3.60;;;8.60;99.90;;;;;;5024803;28;20045;-73
2023/03/29 05:54:14;;;;;;;7.03;3.93;;;8.60;99.90;;;;;;5038470;28;20037;-74
2023/03/29 05:56:40;;;;;;;5.67;3.43;;;8.60;99.90;;;;;;5035613;28;20018;-71
2023/03/29 05:59:07;;;;;;;6.60;4.13;;;8.60;99.90;;;;;;5042598;28;20060;-72
2023/03/29 06:01:33;;;;;;;6.13;3.90;;;8.70;99.90;;;;;;5026992;28;20395;-71
2023/03/29 06:03:59;;;;;;;5.80;3.67;;;8.70;99.90;;;;;;5036974;28;20098;-71
2023/03/29 06:06:25;;;;;;;6.87;3.40;;;8.70;99.90;;;;;;5039588;28;20026;-71
2023/03/29 06:08:51;;;;;;;8.57;4.57;;;8.70;99.90;;;;;;5039755;28;20842;-71
2023/03/29 06:11:16;;;;;;;4.77;3.80;;;8.70;99.90;;;;;;5040501;28;20018;-71
2023/03/29 06:13:42;;;;;;;5.17;3.43;;;8.80;99.90;;;;;;5040834;28;20427;-72
2023/03/29 06:16:09;;;;;;;6.13;3.87;;;8.80;99.90;;;;;;5040003;28;20041;-71
2023/03/29 06:18:35;;;;;;;6.80;3.97;;;8.80;99.90;;;;;;5041276;28;20024;-72
2023/03/29 06:21:01;;;;;;;5.70;4.07;;;8.80;99.90;;;;;;5035846;28;20026;-71
2023/03/29 06:23:27;;;;;;;5.60;3.70;;;8.80;99.90;;;;;;5041550;28;20027;-72
2023/03/29 06:25:54;;;;;;;7.20;3.73;;;8.90;99.90;;;;;;5037776;28;20481;-71
2023/03/29 06:28:20;;;;;;;3.83;2.87;;;8.90;99.90;;;;;;5043769;28;20032;-72
2023/03/29 06:30:46;;;;;;;6.67;4.20;;;9.00;99.90;;;;;;5046939;28;20027;-71
2023/03/29 06:33:13;;;;;;;5.07;3.67;;;9.00;99.90;;;;;;5035927;28;20033;-71
2023/03/29 06:35:45;;;;;;;6.93;3.83;;;9.10;99.90;;;;;;5041512;28;20029;-71
2023/03/29 06:38:10;;;;;;;7.83;4.63;;;9.10;99.90;;;;;;5049402;28;20112;-71
2023/03/29 06:40:36;;;;;;;5.97;4.33;;;9.10;99.90;;;;;;5044435;28;20112;-71
2023/03/29 06:43:03;;;;;;;5.93;3.30;;;9.20;99.90;;;;;;5041693;28;20025;-71
2023/03/29 06:45:35;;;;;;;6.57;4.33;;;9.20;99.90;;;;;;5041591;28;20040;-71
2023/03/29 06:48:02;;;;;;;5.67;4.07;;;9.20;99.90;;;;;;5046834;28;20362;-71
2023/03/29 06:50:28;;;;;;;9.87;4.97;;;9.20;99.90;;;;;;5038635;28;20021;-71
2023/03/29 06:52:53;;;;;;;5.90;4.07;;;9.20;99.90;;;;;;5045916;28;20036;-71
2023/03/29 06:55:21;;;;;;;7.53;4.10;;;9.20;99.90;;;;;;5042117;28;20017;-71
2023/03/29 06:57:47;;;;;;;8.10;4.63;;;9.30;99.90;;;;;;5033409;28;20102;-71
2023/03/29 07:00:17;;;;;;;8.13;3.67;;;9.30;99.90;;;;;;5031763;28;20077;-73
2023/03/29 07:02:43;;;;;;;5.60;4.63;;;9.30;99.90;;;;;;5042670;28;20072;-71
2023/03/29 07:05:12;;;;;;;10.47;4.20;;;9.30;99.90;;;;;;5034088;28;20737;-71
2023/03/29 07:08:10;;;;;;;5.93;4.23;;;9.40;99.90;;;;;;5034947;28;20515;-71
2023/03/29 07:10:38;;;;;;;5.50;3.67;;;9.50;99.90;;;;;;5031168;28;20466;-71
2023/03/29 07:13:07;;;;;;;7.33;4.13;;;9.60;99.90;;;;;;5032110;28;20030;-72
2023/03/29 07:15:34;;;;;;;7.77;4.43;;;9.60;99.90;;;;;;5035013;28;20462;-71
2023/03/29 07:18:03;;;;;;;7.00;4.07;;;9.60;99.90;;;;;;5033460;28;20109;-71
2023/03/29 07:20:30;;;;;;;5.53;4.17;;;9.60;99.90;;;;;;5035841;28;20014;-72
2023/03/29 07:22:56;;;;;;;5.73;3.67;;;9.70;99.90;;;;;;5031806;28;20025;-71
2023/03/29 07:25:23;;;;;;;7.20;4.30;;;9.70;99.90;;;;;;5030654;28;20364;-72
2023/03/29 07:27:50;;;;;;;6.40;4.43;;;9.80;99.90;;;;;;5030539;28;20033;-72
2023/03/29 07:30:19;;;;;;;6.43;4.33;;;9.80;99.90;;;;;;5035767;28;20086;-72
2023/03/29 07:32:45;;;;;;;7.73;5.13;;;9.90;99.90;;;;;;5038461;28;20094;-71
2023/03/29 07:35:13;;;;;;;7.65;4.50;;;9.90;99.90;;;;;;5029845;28;20390;-71
2023/03/29 07:37:41;;;;;;;7.72;4.57;;;10.00;99.90;;;;;;5035285;28;20017;-71
2023/03/29 07:40:11;;;;;;;7.60;4.13;;;10.10;99.90;;;;;;5050189;28;20028;-71
2023/03/29 07:42:41;;;;;;;8.57;4.03;;;10.10;99.90;;;;;;5040426;28;20025;-70
2023/03/29 07:45:07;;;;;;;6.97;4.60;;;10.20;99.90;;;;;;5048932;28;20112;-70
2023/03/29 07:47:33;;;;;;;7.82;4.63;;;10.20;99.90;;;;;;5048455;28;20025;-70
2023/03/29 07:50:00;;;;;;;5.72;4.43;;;10.30;99.90;;;;;;5041785;28;20462;-70
2023/03/29 07:52:29;;;;;;;9.40;4.85;;;10.40;99.90;;;;;;5047831;28;20036;-70
2023/03/29 07:54:58;;;;;;;6.50;4.10;;;10.50;99.90;;;;;;5041057;28;20028;-71
2023/03/29 07:57:25;;;;;;;8.90;4.32;;;10.60;99.90;;;;;;5027390;28;20043;-70
2023/03/29 07:59:51;;;;;;;8.45;4.85;;;10.70;99.90;;;;;;5029064;28;20087;-70
2023/03/29 08:02:18;;;;;;;7.90;5.00;;;10.70;99.90;;;;;;5036978;28;20053;-70
2023/03/29 08:04:44;;;;;;;9.55;5.22;;;10.80;99.90;;;;;;5038729;28;20116;-70
2023/03/29 08:07:09;;;;;;;6.45;4.90;;;10.80;99.90;;;;;;5043899;28;20565;-70
2023/03/29 08:09:36;;;;;;;9.07;4.47;;;10.80;99.90;;;;;;5033662;28;20106;-70
2023/03/29 08:12:01;;;;;;;8.55;5.10;;;10.80;99.90;;;;;;5044344;28;20378;-70
2023/03/29 08:14:27;;;;;;;7.95;4.53;;;10.90;99.90;;;;;;5039753;28;20013;-70
2023/03/29 08:16:53;;;;;;;8.65;4.63;;;10.90;99.90;;;;;;5042532;28;20094;-70
2023/03/29 08:19:19;;;;;;;8.82;5.22;;;11.00;99.90;;;;;;5037640;28;20383;-70
2023/03/29 08:21:44;;;;;;;6.20;4.43;;;11.00;99.90;;;;;;5034424;28;20022;-70
2023/03/29 08:24:10;;;;;;;9.75;4.53;;;11.10;99.90;;;;;;5027579;28;20475;-70
2023/03/29 08:26:36;;;;;;;6.78;4.53;;;11.10;99.90;;;;;;5031857;28;20018;-70
2023/03/29 08:29:01;;;;;;;10.70;5.32;;;11.10;99.90;;;;;;5030637;28;20058;-70
2023/03/29 08:31:27;;;;;;;12.27;5.50;;;11.20;99.90;;;;;;5043337;28;20070;-70
2023/03/29 08:33:53;;;;;;;8.73;5.82;;;11.20;99.90;;;;;;5037520;28;20025;-72
2023/03/29 08:36:18;;;;;;;9.30;5.95;;;11.30;99.90;;;;;;5039386;28;20482;-71
2023/03/29 08:38:44;;;;;;;7.75;5.72;;;11.40;99.90;;;;;;5033360;28;20025;-71
2023/03/29 08:41:33;;;;;;;8.60;5.63;;;11.50;99.90;;;;;;5033015;28;20513;-71
2023/03/29 08:44:06;;;;;;;11.60;5.80;;;11.60;99.90;;;;;;5017680;28;20041;-71
2023/03/29 08:46:39;;;;;;;10.48;6.30;;;11.70;99.90;;;;;;5032931;28;20067;-71
2023/03/29 08:49:06;;;;;;;10.52;5.85;;;11.80;99.90;;;;;;5029955;28;20095;-71
2023/03/29 08:51:37;;;;;;;8.90;7.10;;;12.00;99.90;;;;;;5030234;28;20030;-71
2023/03/29 08:54:15;;;;;;;9.27;6.10;;;12.10;99.90;;;;;;5035259;28;20029;-71
2023/03/29 08:56:44;;;;;;;11.63;7.60;;;12.20;99.90;;;;;;5044083;28;20017;-70
2023/03/29 08:59:29;;;;;;;9.10;6.40;;;12.30;99.90;;;;;;5034581;28;20055;-71
2023/03/29 09:01:58;;;;;;;9.95;6.97;;;12.50;99.90;;;;;;5025799;28;20037;-72
2023/03/29 09:04:30;;;;;;;14.77;7.75;;;12.60;99.90;;;;;;5036929;28;20025;-71
2023/03/29 09:06:56;;;;;;;10.90;6.63;;;12.70;99.90;;;;;;5026518;28;20021;-71
2023/03/29 09:09:26;;;;;;;13.20;7.40;;;12.80;99.90;;;;;;5032698;28;20025;-71
2023/03/29 09:12:29;;;;;;;12.23;7.38;;;12.80;99.90;;;;;;5041299;28;20110;-71
2023/03/29 09:15:25;;;;;;;10.82;7.50;;;12.80;99.90;;;;;;5031526;28;20025;-71
2023/03/29 09:18:24;;;;;;;9.23;6.82;;;12.90;99.90;;;;;;5025953;28;20021;-71
2023/03/29 09:21:15;;;;;;;9.50;6.85;;;12.90;99.90;;;;;;5037676;28;20028;-71
2023/03/29 09:23:55;;;;;;;10.65;7.85;;;12.90;99.90;;;;;;5040688;28;20501;-70
2023/03/29 09:26:24;;;;;;;11.90;8.30;;;12.90;99.90;;;;;;5027886;28;20022;-71
2023/03/29 09:28:58;;;;;;;10.77;7.85;;;13.00;99.90;;;;;;5027262;28;20033;-71
2023/03/29 09:31:33;;;;;;;10.57;7.05;;;13.00;99.90;;;;;;5043976;28;20104;-71
2023/03/29 09:34:09;;;;;;;12.40;8.63;;;13.10;99.90;;;;;;5050972;28;20036;-71
2023/03/29 09:36:52;;;;;;;12.02;9.20;;;13.10;99.90;;;;;;5052345;28;20017;-71
2023/03/29 09:39:19;;;;;;;11.95;8.05;;;13.10;99.90;;;;;;5052644;28;20025;-70
2023/03/29 09:42:03;;;;;;;11.55;9.30;;;13.10;99.90;;;;;;5052160;28;20431;-71
2023/03/29 09:44:45;;;;;;;13.85;9.93;;;13.20;99.90;;;;;;5051247;28;20573;-71
2023/03/29 09:47:25;;;;;;;12.38;9.63;;;13.30;99.90;;;;;;5024565;28;20040;-69
2023/03/29 09:50:05;;;;;;;13.45;9.95;;;13.30;99.90;;;;;;5038501;28;20901;-71
2023/03/29 09:52:31;;;;;;;13.57;10.13;;;13.40;99.90;;;;;;5037840;28;20386;-70
2023/03/29 09:55:02;;;;;;;13.23;9.75;;;13.50;99.90;;;;;;5039584;28;20021;-70
2023/03/29 09:57:29;;;;;;;12.18;10.35;;;13.60;99.90;;;;;;5047142;28;20108;-71
2023/03/29 09:59:56;;;;;;;14.27;9.57;;;13.70;99.90;;;;;;5036686;28;20109;-69
2023/03/29 10:02:22;;;;;;;13.73;8.93;;;13.80;99.90;;;;;;5035240;28;20045;-69
2023/03/29 10:04:54;;;;;;;11.80;8.60;;;13.80;99.90;;;;;;5038778;28;20022;-70
2023/03/29 10:07:20;;;;;;;12.05;9.75;;;13.80;99.90;;;;;;5039525;28;20024;-70
2023/03/29 10:09:49;;;;;;;11.75;8.90;;;13.80;99.90;;;;;;5034255;28;20033;-71
2023/03/29 10:12:15;;;;;;;12.57;9.63;;;13.80;99.90;;;;;;5037019;28;20510;-71
2023/03/29 10:14:47;;;;;;;9.50;8.07;;;13.90;99.90;;;;;;5033808;28;20035;-70
2023/03/29 10:17:20;;;;;;;12.48;9.18;;;14.00;99.90;;;;;;5035061;28;20074;-71
2023/03/29 10:19:51;;;;;;;12.68;8.48;;;13.90;99.90;;;;;;5023136;28;20026;-71
2023/03/29 10:22:21;;;;;;;10.88;9.25;;;14.00;99.90;;;;;;5038108;28;20055;-71
2023/03/29 10:24:52;;;;;;;10.75;8.75;;;14.20;99.90;;;;;;5033312;28;20022;-72
2023/03/29 10:27:22;;;;;;;15.35;8.65;;;14.40;99.90;;;;;;5030797;28;20029;-71
2023/03/29 10:29:48;;;;;;;10.18;8.20;;;14.40;99.90;;;;;;5032985;28;20418;-70
2023/03/29 10:32:17;;;;;;;9.60;8.63;;;14.40;99.90;;;;;;5031371;28;20101;-71
2023/03/29 10:34:46;;;;;;;11.45;7.90;;;14.50;99.90;;;;;;5043063;28;20082;-71
2023/03/29 10:37:15;;;;;;;9.38;8.38;;;14.60;99.90;;;;;;5039642;28;20021;-71
2023/03/29 10:39:41;;;;;;;9.63;8.07;;;14.60;99.90;;;;;;5049290;28;20045;-71
2023/03/29 10:42:18;;;;;;;10.73;8.18;;;14.60;99.90;;;;;;5041553;28;20119;-71
2023/03/29 10:44:53;;;;;;;10.80;8.40;;;14.60;99.90;;;;;;5041009;28;20107;-71
2023/03/29 10:47:20;;;;;;;10.35;8.73;;;14.50;99.90;;;;;;5036455;28;20033;-71
2023/03/29 10:49:51;;;;;;;13.18;9.65;;;14.30;99.90;;;;;;5035603;28;20032;-72
2023/03/29 10:52:17;;;;;;;11.18;9.93;;;14.20;99.90;;;;;;5034031;28;20025;-71
2023/03/29 10:54:43;;;;;;;13.15;9.65;;;14.20;99.90;;;;;;5037330;28;20466;-71
2023/03/29 10:57:15;;;;;;;13.07;9.05;;;14.20;99.90;;;;;;5037988;28;20553;-72
2023/03/29 11:00:12;;;;;;;10.55;8.85;;;14.10;99.90;;;;;;5032501;28;20025;-72
2023/03/29 11:02:51;;;;;;;15.32;8.18;;;14.20;99.90;;;;;;4975903;28;20050;-71
2023/03/29 11:05:28;;;;;;;10.98;9.43;;;14.20;99.90;;;;;;4982413;28;20038;-71
2023/03/29 11:08:21;;;;;;;9.30;8.25;;;14.20;99.90;;;;;;4966076;28;20542;-71
2023/03/29 11:10:56;;;;;;;11.40;8.70;;;14.40;99.90;;;;;;4986585;28;20023;-72
2023/03/29 11:13:43;;;;;;;13.05;9.25;;;14.60;99.90;;;;;;4966565;28;20035;-72
2023/03/29 11:16:19;;;;;;;10.65;8.48;;;14.70;99.90;;;;;;4962098;28;20169;-70
2023/03/29 11:19:17;;;;;;;14.55;9.65;;;14.70;99.90;;;;;;4981176;28;20110;-71
2023/03/29 11:22:02;;;;;;;13.93;8.65;;;14.70;99.90;;;;;;4976193;28;20038;-71
2023/03/29 11:24:39;;;;;;;11.80;7.90;;;14.70;99.90;;;;;;4983487;28;20022;-71
2023/03/29 11:27:39;;;;;;;11.70;8.68;;;14.70;99.90;;;;;;4979636;28;20042;-71
2023/03/29 11:30:20;;;;;;;11.85;7.80;;;14.90;99.90;;;;;;4979358;28;20476;-71
2023/03/29 11:33:27;;;;;;;13.68;8.27;;;15.00;99.90;;;;;;4972663;28;20038;-71
2023/03/29 11:36:15;;;;;;;10.20;7.88;;;15.00;99.90;;;;;;4972039;28;20103;-71
2023/03/29 11:39:14;;;;;;;14.07;7.78;;;14.90;99.90;;;;;;4971894;28;20030;-72
2023/03/29 11:41:43;;;;;;;11.52;8.27;;;14.90;99.90;;;;;;5030414;28;20040;-71
2023/03/29 11:44:19;;;;;;;9.68;8.30;;;14.80;99.90;;;;;;5032347;28;20410;-71
2023/03/29 11:46:51;;;;;;;12.45;8.27;;;14.90;99.90;;;;;;5031194;28;20029;-71
2023/03/29 11:49:28;;;;;;;10.82;8.25;;;15.00;99.90;;;;;;5033201;28;20032;-71
2023/03/29 11:52:19;;;;;;;10.70;9.30;;;15.10;99.90;;;;;;5020077;28;20478;-71
2023/03/29 11:54:51;;;;;;;8.70;7.05;;;15.10;99.90;;;;;;5031237;28;20414;-72
2023/03/29 11:57:46;;;;;;;10.05;8.30;;;15.10;99.90;;;;;;5031032;28;20075;-71
2023/03/29 12:00:18;;;;;;;9.63;8.10;;;15.10;99.90;;;;;;5021673;28;20053;-71
2023/03/29 12:03:18;;;;;;;10.13;8.73;;;15.10;99.90;;;;;;5030389;28;20054;-72
2023/03/29 12:05:54;;;;;;;11.98;8.27;;;15.30;99.90;;;;;;5027025;28;20073;-72
2023/03/29 12:08:37;;;;;;;14.70;9.27;;;15.40;99.90;;;;;;5031026;28;20018;-71
2023/03/29 12:11:24;;;;;;;10.45;8.63;;;15.50;99.90;;;;;;5017585;28;20029;-71
2023/03/29 12:13:55;;;;;;;9.50;7.28;;;15.50;99.90;;;;;;5030426;28;20021;-71
2023/03/29 12:16:39;;;;;;;10.23;8.43;;;15.40;99.90;;;;;;5030993;28;20021;-71
2023/03/29 12:19:33;;;;;;;9.82;8.40;;;15.20;99.90;;;;;;5030556;28;20047;-71
2023/03/29 12:22:00;;;;;;;9.88;7.97;;;15.10;99.90;;;;;;5028342;28;20029;-72
2023/03/29 12:24:30;;;;;;;8.98;8.02;;;15.10;99.90;;;;;;5041126;28;20025;-72
2023/03/29 12:27:22;;;;;;;8.15;7.15;;;15.10;99.90;;;;;;5031819;28;20018;-72
2023/03/29 12:29:48;;;;;;;7.03;6.30;;;15.20;99.90;;;;;;5029604;28;20033;-72
2023/03/29 12:32:26;;;;;;;9.60;7.70;;;15.20;99.90;;;;;;5042401;28;20030;-72
2023/03/29 12:35:16;;;;;;;8.77;6.78;;;15.30;99.90;;;;;;5029062;28;20034;-72
2023/03/29 12:38:03;;;;;;;8.48;7.60;;;15.30;99.90;;;;;;5040136;28;20091;-71
2023/03/29 12:40:40;;;;;;;7.97;6.88;;;15.40;99.90;;;;;;5029196;28;20090;-72
2023/03/29 12:43:12;;;;;;;8.55;7.65;;;15.30;99.90;;;;;;5047565;28;20124;-72
2023/03/29 12:45:46;;;;;;;8.38;7.45;;;15.30;99.90;;;;;;5034531;28;20437;-73
2023/03/29 12:48:19;;;;;;;10.05;7.00;;;15.20;99.90;;;;;;5028174;28;20030;-72
2023/03/29 12:50:49;;;;;;;10.35;7.47;;;15.10;99.90;;;;;;5029672;28;20037;-72
2023/03/29 12:53:22;;;;;;;9.07;7.78;;;15.10;99.90;;;;;;5035996;28;20092;-72
2023/03/29 12:55:54;;;;;;;8.55;7.55;;;14.90;99.90;;;;;;5048175;28;20017;-72
2023/03/29 12:58:25;;;;;;;8.38;7.50;;;14.90;99.90;;;;;;5049152;28;20378;-72
2023/03/29 13:01:07;;;;;;;10.00;6.65;;;14.80;99.90;;;;;;5047238;28;20036;-72
2023/03/29 13:03:47;;;;;;;12.52;7.93;;;14.80;99.90;;;;;;5048260;28;20394;-72
2023/03/29 13:06:31;;;;;;;10.85;8.10;;;14.80;99.90;;;;;;5020270;28;20041;-72
2023/03/29 13:09:03;;;;;;;9.85;7.72;;;14.90;99.90;;;;;;5034955;28;20075;-72
2023/03/29 13:11:36;;;;;;;12.27;7.93;;;14.90;99.90;;;;;;5022679;28;20034;-73